sensor_id;sensor_type;location;lat;lon;timestamp;P1;durP1;ratioP1;P2;durP2;ratioP2
19095;SDS011;9680;52.520;13.332;2022-12-13T00:01:42;24.63;;;8.43;;
19095;SDS011;9680;52.520;13.332;2022-12-13T00:04:09;18.83;;;7.77;;
19095;SDS011;9680;52.520;13.332;2022-12-13T00:06:35;21.43;;;7.67;;
19095;SDS011;9680;52.520;13.332;2022-12-13T00:09:01;23.93;;;8.50;;
19095;SDS011;9680;52.520;13.332;2022-12-13T00:11:28;23.40;;;8.50;;
19095;SDS011;9680;52.520;13.332;2022-12-13T00:13:54;19.53;;;7.23;;
19095;SDS011;9680;52.520;13.332;2022-12-13T00:16:21;19.43;;;7.40;;
19095;SDS011;9680;52.520;13.332;2022-12-13T00:18:49;21.43;;;7.87;;
19095;SDS011;9680;52.520;13.332;2022-12-13T00:21:20;23.03;;;8.03;;
19095;SDS011;9680;52.520;13.332;2022-12-13T00:23:47;23.03;;;8.27;;
19095;SDS011;9680;52.520;13.332;2022-12-13T00:26:14;17.60;;;6.80;;
19095;SDS011;9680;52.520;13.332;2022-12-13T00:28:42;25.70;;;8.63;;
19095;SDS011;9680;52.520;13.332;2022-12-13T00:31:08;19.83;;;7.83;;
19095;SDS011;9680;52.520;13.332;2022-12-13T00:33:35;22.50;;;7.77;;
19095;SDS011;9680;52.520;13.332;2022-12-13T00:36:03;22.33;;;8.93;;
19095;SDS011;9680;52.520;13.332;2022-12-13T00:38:29;19.47;;;6.80;;
19095;SDS011;9680;52.520;13.332;2022-12-13T00:40:55;19.67;;;7.37;;
19095;SDS011;9680;52.520;13.332;2022-12-13T00:43:20;24.90;;;8.37;;
19095;SDS011;9680;52.520;13.332;2022-12-13T00:45:46;22.47;;;8.13;;
19095;SDS011;9680;52.520;13.332;2022-12-13T00:48:11;21.97;;;8.07;;
19095;SDS011;9680;52.520;13.332;2022-12-13T00:50:37;20.10;;;7.30;;
19095;SDS011;9680;52.520;13.332;2022-12-13T00:53:03;23.40;;;8.00;;
19095;SDS011;9680;52.520;13.332;2022-12-13T00:55:29;21.97;;;8.00;;
19095;SDS011;9680;52.520;13.332;2022-12-13T00:57:55;19.07;;;7.57;;
19095;SDS011;9680;52.520;13.332;2022-12-13T01:00:20;18.27;;;7.30;;
19095;SDS011;9680;52.520;13.332;2022-12-13T01:02:46;18.73;;;6.93;;
19095;SDS011;9680;52.520;13.332;2022-12-13T01:05:11;20.70;;;7.83;;
19095;SDS011;9680;52.520;13.332;2022-12-13T01:07:38;19.23;;;6.63;;
19095;SDS011;9680;52.520;13.332;2022-12-13T01:10:08;19.20;;;7.60;;
19095;SDS011;9680;52.520;13.332;2022-12-13T01:12:34;22.77;;;7.43;;
19095;SDS011;9680;52.520;13.332;2022-12-13T01:14:59;21.23;;;7.43;;
19095;SDS011;9680;52.520;13.332;2022-12-13T01:17:25;19.20;;;7.20;;
19095;SDS011;9680;52.520;13.332;2022-12-13T01:19:51;20.60;;;6.87;;
19095;SDS011;9680;52.520;13.332;2022-12-13T01:22:16;17.67;;;6.97;;
19095;SDS011;9680;52.520;13.332;2022-12-13T01:24:42;21.70;;;7.60;;
19095;SDS011;9680;52.520;13.332;2022-12-13T01:27:07;21.33;;;7.30;;
19095;SDS011;9680;52.520;13.332;2022-12-13T01:29:33;20.53;;;7.00;;
19095;SDS011;9680;52.520;13.332;2022-12-13T01:31:58;20.07;;;7.93;;
19095;SDS011;9680;52.520;13.332;2022-12-13T01:34:24;20.00;;;7.13;;
19095;SDS011;9680;52.520;13.332;2022-12-13T01:36:51;24.13;;;8.20;;
19095;SDS011;9680;52.520;13.332;2022-12-13T01:39:18;23.97;;;8.67;;
19095;SDS011;9680;52.520;13.332;2022-12-13T01:41:44;24.37;;;8.17;;
19095;SDS011;9680;52.520;13.332;2022-12-13T01:47:15;20.60;;;7.13;;
19095;SDS011;9680;52.520;13.332;2022-12-13T01:49:47;21.37;;;8.27;;
19095;SDS011;9680;52.520;13.332;2022-12-13T01:52:13;22.37;;;7.90;;
19095;SDS011;9680;52.520;13.332;2022-12-13T01:54:43;19.33;;;8.03;;
19095;SDS011;9680;52.520;13.332;2022-12-13T01:57:13;20.03;;;7.40;;
19095;SDS011;9680;52.520;13.332;2022-12-13T01:59:41;20.87;;;8.10;;
19095;SDS011;9680;52.520;13.332;2022-12-13T02:02:08;19.63;;;7.77;;
19095;SDS011;9680;52.520;13.332;2022-12-13T02:04:39;18.47;;;6.90;;
19095;SDS011;9680;52.520;13.332;2022-12-13T02:07:09;24.80;;;7.87;;
19095;SDS011;9680;52.520;13.332;2022-12-13T02:09:37;21.00;;;7.60;;
19095;SDS011;9680;52.520;13.332;2022-12-13T02:12:03;23.30;;;8.00;;
19095;SDS011;9680;52.520;13.332;2022-12-13T02:14:29;23.23;;;7.70;;
19095;SDS011;9680;52.520;13.332;2022-12-13T02:16:56;23.10;;;7.63;;
19095;SDS011;9680;52.520;13.332;2022-12-13T02:22:25;19.47;;;7.40;;
19095;SDS011;9680;52.520;13.332;2022-12-13T02:32:49;20.00;;;7.67;;
19095;SDS011;9680;52.520;13.332;2022-12-13T02:38:17;21.30;;;8.10;;
19095;SDS011;9680;52.520;13.332;2022-12-13T02:40:50;24.73;;;8.17;;
19095;SDS011;9680;52.520;13.332;2022-12-13T02:43:27;24.90;;;8.43;;
19095;SDS011;9680;52.520;13.332;2022-12-13T02:46:01;24.17;;;8.70;;
19095;SDS011;9680;52.520;13.332;2022-12-13T02:48:34;20.93;;;7.90;;
19095;SDS011;9680;52.520;13.332;2022-12-13T02:51:02;23.93;;;8.47;;
19095;SDS011;9680;52.520;13.332;2022-12-13T02:53:29;20.77;;;7.80;;
19095;SDS011;9680;52.520;13.332;2022-12-13T02:55:56;24.33;;;8.67;;
19095;SDS011;9680;52.520;13.332;2022-12-13T02:58:22;25.37;;;9.17;;
19095;SDS011;9680;52.520;13.332;2022-12-13T03:00:59;25.77;;;9.03;;
19095;SDS011;9680;52.520;13.332;2022-12-13T03:11:35;25.13;;;8.43;;
19095;SDS011;9680;52.520;13.332;2022-12-13T03:14:29;21.83;;;8.40;;
19095;SDS011;9680;52.520;13.332;2022-12-13T03:16:58;20.93;;;7.90;;
19095;SDS011;9680;52.520;13.332;2022-12-13T03:19:26;23.13;;;8.67;;
19095;SDS011;9680;52.520;13.332;2022-12-13T03:21:52;23.50;;;8.53;;
19095;SDS011;9680;52.520;13.332;2022-12-13T03:24:18;25.03;;;8.57;;
19095;SDS011;9680;52.520;13.332;2022-12-13T03:26:45;19.07;;;7.93;;
19095;SDS011;9680;52.520;13.332;2022-12-13T03:29:12;24.10;;;8.33;;
19095;SDS011;9680;52.520;13.332;2022-12-13T03:31:39;21.47;;;8.07;;
19095;SDS011;9680;52.520;13.332;2022-12-13T03:34:04;25.33;;;9.30;;
19095;SDS011;9680;52.520;13.332;2022-12-13T03:36:30;22.83;;;8.37;;
19095;SDS011;9680;52.520;13.332;2022-12-13T03:38:55;28.17;;;9.13;;
19095;SDS011;9680;52.520;13.332;2022-12-13T03:41:22;23.20;;;8.73;;
19095;SDS011;9680;52.520;13.332;2022-12-13T03:43:56;20.70;;;8.20;;
19095;SDS011;9680;52.520;13.332;2022-12-13T03:46:23;20.47;;;7.53;;
19095;SDS011;9680;52.520;13.332;2022-12-13T03:48:48;23.37;;;8.77;;
19095;SDS011;9680;52.520;13.332;2022-12-13T03:51:13;23.70;;;8.43;;
19095;SDS011;9680;52.520;13.332;2022-12-13T03:53:39;22.33;;;8.23;;
19095;SDS011;9680;52.520;13.332;2022-12-13T03:56:04;25.77;;;8.30;;
19095;SDS011;9680;52.520;13.332;2022-12-13T03:58:31;24.00;;;8.30;;
19095;SDS011;9680;52.520;13.332;2022-12-13T04:00:57;20.00;;;8.30;;
19095;SDS011;9680;52.520;13.332;2022-12-13T04:03:23;19.83;;;8.40;;
19095;SDS011;9680;52.520;13.332;2022-12-13T04:05:48;20.57;;;8.07;;
19095;SDS011;9680;52.520;13.332;2022-12-13T04:08:14;22.60;;;7.77;;
19095;SDS011;9680;52.520;13.332;2022-12-13T04:10:39;22.90;;;8.87;;
19095;SDS011;9680;52.520;13.332;2022-12-13T04:13:04;19.70;;;7.73;;
19095;SDS011;9680;52.520;13.332;2022-12-13T04:15:48;23.23;;;8.13;;
19095;SDS011;9680;52.520;13.332;2022-12-13T04:18:15;22.67;;;8.03;;
19095;SDS011;9680;52.520;13.332;2022-12-13T04:20:41;20.77;;;7.70;;
19095;SDS011;9680;52.520;13.332;2022-12-13T04:23:07;21.30;;;8.90;;
19095;SDS011;9680;52.520;13.332;2022-12-13T04:25:33;23.33;;;8.30;;
19095;SDS011;9680;52.520;13.332;2022-12-13T04:27:58;24.20;;;8.77;;
19095;SDS011;9680;52.520;13.332;2022-12-13T04:30:24;24.03;;;8.37;;
19095;SDS011;9680;52.520;13.332;2022-12-13T04:32:49;20.17;;;7.50;;
19095;SDS011;9680;52.520;13.332;2022-12-13T04:35:14;21.67;;;8.17;;
19095;SDS011;9680;52.520;13.332;2022-12-13T04:37:40;19.97;;;7.73;;
19095;SDS011;9680;52.520;13.332;2022-12-13T04:40:06;23.20;;;8.80;;
19095;SDS011;9680;52.520;13.332;2022-12-13T04:42:31;21.73;;;7.63;;
19095;SDS011;9680;52.520;13.332;2022-12-13T04:44:57;21.40;;;8.00;;
19095;SDS011;9680;52.520;13.332;2022-12-13T04:47:22;23.50;;;7.97;;
19095;SDS011;9680;52.520;13.332;2022-12-13T04:49:48;24.20;;;8.60;;
19095;SDS011;9680;52.520;13.332;2022-12-13T04:52:13;23.73;;;7.43;;
19095;SDS011;9680;52.520;13.332;2022-12-13T04:54:39;19.83;;;7.83;;
19095;SDS011;9680;52.520;13.332;2022-12-13T04:57:08;23.00;;;8.03;;
19095;SDS011;9680;52.520;13.332;2022-12-13T04:59:35;23.60;;;8.77;;
19095;SDS011;9680;52.520;13.332;2022-12-13T05:02:02;22.27;;;7.90;;
19095;SDS011;9680;52.520;13.332;2022-12-13T05:04:28;23.73;;;8.53;;
19095;SDS011;9680;52.520;13.332;2022-12-13T05:06:54;21.43;;;8.07;;
19095;SDS011;9680;52.520;13.332;2022-12-13T05:09:21;20.57;;;8.37;;
19095;SDS011;9680;52.520;13.332;2022-12-13T05:11:47;21.97;;;8.40;;
19095;SDS011;9680;52.520;13.332;2022-12-13T05:14:13;20.60;;;8.07;;
19095;SDS011;9680;52.520;13.332;2022-12-13T05:16:38;24.10;;;8.83;;
19095;SDS011;9680;52.520;13.332;2022-12-13T05:19:04;22.77;;;8.27;;
19095;SDS011;9680;52.520;13.332;2022-12-13T05:21:29;23.03;;;8.57;;
19095;SDS011;9680;52.520;13.332;2022-12-13T05:23:54;19.47;;;8.27;;
19095;SDS011;9680;52.520;13.332;2022-12-13T05:26:20;19.70;;;8.13;;
19095;SDS011;9680;52.520;13.332;2022-12-13T05:28:45;24.47;;;9.17;;
19095;SDS011;9680;52.520;13.332;2022-12-13T05:31:11;24.10;;;8.90;;
19095;SDS011;9680;52.520;13.332;2022-12-13T05:33:37;26.63;;;9.57;;
19095;SDS011;9680;52.520;13.332;2022-12-13T05:36:03;23.57;;;8.70;;
19095;SDS011;9680;52.520;13.332;2022-12-13T05:38:29;24.57;;;8.50;;
19095;SDS011;9680;52.520;13.332;2022-12-13T05:40:56;25.50;;;9.33;;
19095;SDS011;9680;52.520;13.332;2022-12-13T05:43:22;25.80;;;9.40;;
19095;SDS011;9680;52.520;13.332;2022-12-13T05:45:48;23.60;;;8.43;;
19095;SDS011;9680;52.520;13.332;2022-12-13T05:48:14;25.53;;;8.53;;
19095;SDS011;9680;52.520;13.332;2022-12-13T05:50:39;26.77;;;8.60;;
19095;SDS011;9680;52.520;13.332;2022-12-13T05:53:05;28.03;;;9.13;;
19095;SDS011;9680;52.520;13.332;2022-12-13T05:55:31;22.40;;;8.53;;
19095;SDS011;9680;52.520;13.332;2022-12-13T05:57:58;22.73;;;8.50;;
19095;SDS011;9680;52.520;13.332;2022-12-13T06:00:23;23.03;;;8.83;;
19095;SDS011;9680;52.520;13.332;2022-12-13T06:02:50;20.53;;;7.80;;
19095;SDS011;9680;52.520;13.332;2022-12-13T06:05:16;26.30;;;8.87;;
19095;SDS011;9680;52.520;13.332;2022-12-13T06:07:41;22.33;;;9.20;;
19095;SDS011;9680;52.520;13.332;2022-12-13T06:10:07;22.50;;;8.43;;
19095;SDS011;9680;52.520;13.332;2022-12-13T06:12:33;24.67;;;8.90;;
19095;SDS011;9680;52.520;13.332;2022-12-13T06:14:59;24.20;;;8.60;;
19095;SDS011;9680;52.520;13.332;2022-12-13T06:17:25;25.23;;;9.00;;
19095;SDS011;9680;52.520;13.332;2022-12-13T06:19:53;26.37;;;8.97;;
19095;SDS011;9680;52.520;13.332;2022-12-13T06:22:19;25.00;;;8.87;;
19095;SDS011;9680;52.520;13.332;2022-12-13T06:24:44;22.53;;;9.17;;
19095;SDS011;9680;52.520;13.332;2022-12-13T06:27:11;23.10;;;8.83;;
19095;SDS011;9680;52.520;13.332;2022-12-13T06:29:36;23.53;;;9.30;;
19095;SDS011;9680;52.520;13.332;2022-12-13T06:32:02;28.23;;;9.30;;
19095;SDS011;9680;52.520;13.332;2022-12-13T06:34:28;25.37;;;9.30;;
19095;SDS011;9680;52.520;13.332;2022-12-13T06:36:54;23.83;;;8.77;;
19095;SDS011;9680;52.520;13.332;2022-12-13T06:39:20;35.07;;;12.83;;
19095;SDS011;9680;52.520;13.332;2022-12-13T06:41:45;35.83;;;10.20;;
19095;SDS011;9680;52.520;13.332;2022-12-13T06:44:11;26.43;;;9.93;;
19095;SDS011;9680;52.520;13.332;2022-12-13T06:46:37;32.23;;;9.37;;
19095;SDS011;9680;52.520;13.332;2022-12-13T06:49:03;25.73;;;9.40;;
19095;SDS011;9680;52.520;13.332;2022-12-13T06:51:31;27.03;;;10.30;;
19095;SDS011;9680;52.520;13.332;2022-12-13T06:53:58;29.13;;;10.57;;
19095;SDS011;9680;52.520;13.332;2022-12-13T06:56:23;29.70;;;9.57;;
19095;SDS011;9680;52.520;13.332;2022-12-13T06:58:49;25.87;;;9.80;;
19095;SDS011;9680;52.520;13.332;2022-12-13T07:01:15;27.17;;;10.23;;
19095;SDS011;9680;52.520;13.332;2022-12-13T07:03:42;25.57;;;9.60;;
19095;SDS011;9680;52.520;13.332;2022-12-13T07:06:11;24.23;;;9.53;;
19095;SDS011;9680;52.520;13.332;2022-12-13T07:08:41;32.00;;;10.03;;
19095;SDS011;9680;52.520;13.332;2022-12-13T07:11:15;29.60;;;11.00;;
19095;SDS011;9680;52.520;13.332;2022-12-13T07:13:42;29.27;;;10.97;;
19095;SDS011;9680;52.520;13.332;2022-12-13T07:16:08;23.17;;;9.33;;
19095;SDS011;9680;52.520;13.332;2022-12-13T07:18:34;25.57;;;9.70;;
19095;SDS011;9680;52.520;13.332;2022-12-13T07:21:02;28.33;;;10.33;;
19095;SDS011;9680;52.520;13.332;2022-12-13T07:23:33;27.47;;;10.10;;
19095;SDS011;9680;52.520;13.332;2022-12-13T07:25:59;32.40;;;11.27;;
19095;SDS011;9680;52.520;13.332;2022-12-13T07:28:25;31.77;;;10.87;;
19095;SDS011;9680;52.520;13.332;2022-12-13T07:30:51;32.60;;;11.37;;
19095;SDS011;9680;52.520;13.332;2022-12-13T07:33:16;31.67;;;11.30;;
19095;SDS011;9680;52.520;13.332;2022-12-13T07:35:43;28.87;;;10.07;;
19095;SDS011;9680;52.520;13.332;2022-12-13T07:38:09;31.80;;;10.87;;
19095;SDS011;9680;52.520;13.332;2022-12-13T07:40:36;32.80;;;10.60;;
19095;SDS011;9680;52.520;13.332;2022-12-13T07:43:03;30.50;;;10.20;;
19095;SDS011;9680;52.520;13.332;2022-12-13T07:45:32;29.10;;;10.50;;
19095;SDS011;9680;52.520;13.332;2022-12-13T07:48:53;25.67;;;10.37;;
19095;SDS011;9680;52.520;13.332;2022-12-13T07:51:47;26.20;;;9.93;;
19095;SDS011;9680;52.520;13.332;2022-12-13T07:54:18;30.30;;;10.43;;
19095;SDS011;9680;52.520;13.332;2022-12-13T08:02:39;28.57;;;10.10;;
19095;SDS011;9680;52.520;13.332;2022-12-13T08:05:33;30.63;;;10.93;;
19095;SDS011;9680;52.520;13.332;2022-12-13T08:08:37;28.07;;;9.63;;
19095;SDS011;9680;52.520;13.332;2022-12-13T08:11:46;31.77;;;10.43;;
19095;SDS011;9680;52.520;13.332;2022-12-13T08:14:46;29.70;;;10.30;;
19095;SDS011;9680;52.520;13.332;2022-12-13T08:17:57;33.17;;;11.03;;
19095;SDS011;9680;52.520;13.332;2022-12-13T08:20:28;26.77;;;10.57;;
19095;SDS011;9680;52.520;13.332;2022-12-13T08:23:18;28.43;;;9.73;;
19095;SDS011;9680;52.520;13.332;2022-12-13T08:25:54;29.73;;;10.53;;
19095;SDS011;9680;52.520;13.332;2022-12-13T08:28:23;27.50;;;10.63;;
19095;SDS011;9680;52.520;13.332;2022-12-13T08:31:00;37.63;;;11.80;;
19095;SDS011;9680;52.520;13.332;2022-12-13T08:33:28;36.77;;;10.47;;
19095;SDS011;9680;52.520;13.332;2022-12-13T08:35:57;30.07;;;10.33;;
19095;SDS011;9680;52.520;13.332;2022-12-13T08:38:25;33.60;;;11.20;;
19095;SDS011;9680;52.520;13.332;2022-12-13T08:40:57;30.97;;;11.20;;
19095;SDS011;9680;52.520;13.332;2022-12-13T08:43:36;26.73;;;9.87;;
19095;SDS011;9680;52.520;13.332;2022-12-13T08:46:14;28.03;;;10.70;;
19095;SDS011;9680;52.520;13.332;2022-12-13T08:48:52;31.33;;;9.97;;
19095;SDS011;9680;52.520;13.332;2022-12-13T08:51:34;31.23;;;10.83;;
19095;SDS011;9680;52.520;13.332;2022-12-13T08:54:03;31.67;;;10.67;;
19095;SDS011;9680;52.520;13.332;2022-12-13T08:56:29;36.27;;;11.90;;
19095;SDS011;9680;52.520;13.332;2022-12-13T08:59:07;42.10;;;10.90;;
19095;SDS011;9680;52.520;13.332;2022-12-13T09:01:36;33.30;;;10.83;;
19095;SDS011;9680;52.520;13.332;2022-12-13T09:04:07;28.40;;;10.80;;
19095;SDS011;9680;52.520;13.332;2022-12-13T09:06:33;30.47;;;11.10;;
19095;SDS011;9680;52.520;13.332;2022-12-13T09:09:05;31.57;;;10.80;;
19095;SDS011;9680;52.520;13.332;2022-12-13T09:11:44;31.90;;;10.80;;
19095;SDS011;9680;52.520;13.332;2022-12-13T09:14:20;30.03;;;10.67;;
19095;SDS011;9680;52.520;13.332;2022-12-13T09:16:50;30.97;;;10.80;;
19095;SDS011;9680;52.520;13.332;2022-12-13T09:19:18;36.77;;;11.00;;
19095;SDS011;9680;52.520;13.332;2022-12-13T09:21:55;34.33;;;11.87;;
19095;SDS011;9680;52.520;13.332;2022-12-13T09:24:30;32.10;;;11.13;;
19095;SDS011;9680;52.520;13.332;2022-12-13T09:27:11;36.03;;;11.67;;
19095;SDS011;9680;52.520;13.332;2022-12-13T09:29:48;36.27;;;11.73;;
19095;SDS011;9680;52.520;13.332;2022-12-13T09:32:36;33.87;;;11.93;;
19095;SDS011;9680;52.520;13.332;2022-12-13T09:35:20;26.50;;;10.73;;
19095;SDS011;9680;52.520;13.332;2022-12-13T09:38:50;30.43;;;11.80;;
19095;SDS011;9680;52.520;13.332;2022-12-13T09:44:39;31.83;;;10.53;;
19095;SDS011;9680;52.520;13.332;2022-12-13T09:53:10;24.80;;;10.10;;
19095;SDS011;9680;52.520;13.332;2022-12-13T09:55:52;27.67;;;9.83;;
19095;SDS011;9680;52.520;13.332;2022-12-13T09:58:32;33.03;;;11.67;;
19095;SDS011;9680;52.520;13.332;2022-12-13T10:01:13;33.73;;;11.60;;
19095;SDS011;9680;52.520;13.332;2022-12-13T10:03:43;27.67;;;10.30;;
19095;SDS011;9680;52.520;13.332;2022-12-13T10:06:27;26.10;;;10.10;;
19095;SDS011;9680;52.520;13.332;2022-12-13T10:08:57;30.77;;;10.43;;
19095;SDS011;9680;52.520;13.332;2022-12-13T10:11:33;26.57;;;9.70;;
19095;SDS011;9680;52.520;13.332;2022-12-13T10:14:03;27.43;;;9.60;;
19095;SDS011;9680;52.520;13.332;2022-12-13T10:16:47;30.63;;;10.37;;
19095;SDS011;9680;52.520;13.332;2022-12-13T10:19:23;29.73;;;10.20;;
19095;SDS011;9680;52.520;13.332;2022-12-13T10:21:59;31.07;;;10.47;;
19095;SDS011;9680;52.520;13.332;2022-12-13T10:27:27;28.07;;;10.00;;
19095;SDS011;9680;52.520;13.332;2022-12-13T10:30:16;25.20;;;9.77;;
19095;SDS011;9680;52.520;13.332;2022-12-13T10:32:59;23.87;;;9.40;;
19095;SDS011;9680;52.520;13.332;2022-12-13T10:35:33;23.20;;;9.23;;
19095;SDS011;9680;52.520;13.332;2022-12-13T10:40:46;24.40;;;9.37;;
19095;SDS011;9680;52.520;13.332;2022-12-13T10:43:23;24.47;;;9.53;;
19095;SDS011;9680;52.520;13.332;2022-12-13T10:46:16;26.43;;;9.37;;
19095;SDS011;9680;52.520;13.332;2022-12-13T10:48:58;25.40;;;9.60;;
19095;SDS011;9680;52.520;13.332;2022-12-13T10:51:45;30.47;;;10.00;;
19095;SDS011;9680;52.520;13.332;2022-12-13T10:54:18;24.33;;;9.30;;
19095;SDS011;9680;52.520;13.332;2022-12-13T10:56:56;20.30;;;8.80;;
19095;SDS011;9680;52.520;13.332;2022-12-13T10:59:40;35.97;;;9.00;;
19095;SDS011;9680;52.520;13.332;2022-12-13T11:08:28;26.33;;;9.57;;
19095;SDS011;9680;52.520;13.332;2022-12-13T11:10:58;21.83;;;8.77;;
19095;SDS011;9680;52.520;13.332;2022-12-13T11:13:50;26.67;;;9.70;;
19095;SDS011;9680;52.520;13.332;2022-12-13T11:18:54;21.33;;;7.83;;
19095;SDS011;9680;52.520;13.332;2022-12-13T11:21:25;23.67;;;8.10;;
19095;SDS011;9680;52.520;13.332;2022-12-13T11:23:54;22.17;;;8.53;;
19095;SDS011;9680;52.520;13.332;2022-12-13T11:26:22;20.70;;;8.07;;
19095;SDS011;9680;52.520;13.332;2022-12-13T11:31:42;18.03;;;7.13;;
19095;SDS011;9680;52.520;13.332;2022-12-13T11:39:36;21.10;;;7.60;;
19095;SDS011;9680;52.520;13.332;2022-12-13T11:42:10;22.50;;;8.07;;
19095;SDS011;9680;52.520;13.332;2022-12-13T11:44:59;21.40;;;8.23;;
19095;SDS011;9680;52.520;13.332;2022-12-13T11:50:34;21.50;;;8.13;;
19095;SDS011;9680;52.520;13.332;2022-12-13T11:53:27;18.93;;;8.00;;
19095;SDS011;9680;52.520;13.332;2022-12-13T11:56:41;25.37;;;8.73;;
19095;SDS011;9680;52.520;13.332;2022-12-13T11:59:39;20.17;;;7.83;;
19095;SDS011;9680;52.520;13.332;2022-12-13T12:02:19;26.23;;;8.87;;
19095;SDS011;9680;52.520;13.332;2022-12-13T12:04:57;23.37;;;8.43;;
19095;SDS011;9680;52.520;13.332;2022-12-13T12:07:43;19.83;;;8.53;;
19095;SDS011;9680;52.520;13.332;2022-12-13T12:13:21;22.40;;;8.10;;
19095;SDS011;9680;52.520;13.332;2022-12-13T12:23:46;21.10;;;7.37;;
19095;SDS011;9680;52.520;13.332;2022-12-13T12:53:40;20.90;;;8.20;;
19095;SDS011;9680;52.520;13.332;2022-12-13T13:08:39;24.33;;;8.43;;
19095;SDS011;9680;52.520;13.332;2022-12-13T13:22:13;22.10;;;8.13;;
19095;SDS011;9680;52.520;13.332;2022-12-13T13:28:40;20.30;;;7.67;;
19095;SDS011;9680;52.520;13.332;2022-12-13T13:31:21;24.13;;;8.20;;
19095;SDS011;9680;52.520;13.332;2022-12-13T13:40:49;18.83;;;7.97;;
19095;SDS011;9680;52.520;13.332;2022-12-13T13:48:06;21.73;;;7.73;;
19095;SDS011;9680;52.520;13.332;2022-12-13T13:53:39;25.00;;;8.73;;
19095;SDS011;9680;52.520;13.332;2022-12-13T14:30:31;17.60;;;6.47;;
19095;SDS011;9680;52.520;13.332;2022-12-13T14:32:57;17.83;;;6.70;;
19095;SDS011;9680;52.520;13.332;2022-12-13T14:35:26;18.70;;;6.87;;
19095;SDS011;9680;52.520;13.332;2022-12-13T14:37:58;15.50;;;7.20;;
19095;SDS011;9680;52.520;13.332;2022-12-13T14:42:56;19.53;;;7.47;;
19095;SDS011;9680;52.520;13.332;2022-12-13T14:48:02;20.13;;;7.50;;
19095;SDS011;9680;52.520;13.332;2022-12-13T14:50:32;19.70;;;7.27;;
19095;SDS011;9680;52.520;13.332;2022-12-13T14:53:00;18.73;;;7.47;;
19095;SDS011;9680;52.520;13.332;2022-12-13T14:55:30;18.97;;;7.23;;
19095;SDS011;9680;52.520;13.332;2022-12-13T14:58:00;18.43;;;6.93;;
19095;SDS011;9680;52.520;13.332;2022-12-13T15:00:37;19.33;;;7.17;;
19095;SDS011;9680;52.520;13.332;2022-12-13T15:03:03;17.20;;;7.37;;
19095;SDS011;9680;52.520;13.332;2022-12-13T15:05:36;19.80;;;7.50;;
19095;SDS011;9680;52.520;13.332;2022-12-13T15:08:09;25.13;;;6.87;;
19095;SDS011;9680;52.520;13.332;2022-12-13T15:10:43;27.23;;;7.13;;
19095;SDS011;9680;52.520;13.332;2022-12-13T15:16:03;28.20;;;7.20;;
19095;SDS011;9680;52.520;13.332;2022-12-13T15:18:43;20.63;;;7.60;;
19095;SDS011;9680;52.520;13.332;2022-12-13T15:21:21;17.77;;;7.57;;
19095;SDS011;9680;52.520;13.332;2022-12-13T15:23:52;20.37;;;7.63;;
19095;SDS011;9680;52.520;13.332;2022-12-13T15:26:22;19.53;;;7.37;;
19095;SDS011;9680;52.520;13.332;2022-12-13T15:28:54;18.50;;;7.37;;
19095;SDS011;9680;52.520;13.332;2022-12-13T15:31:22;22.37;;;7.03;;
19095;SDS011;9680;52.520;13.332;2022-12-13T15:33:48;20.50;;;7.43;;
19095;SDS011;9680;52.520;13.332;2022-12-13T15:41:27;17.93;;;7.17;;
19095;SDS011;9680;52.520;13.332;2022-12-13T15:43:56;17.57;;;7.07;;
19095;SDS011;9680;52.520;13.332;2022-12-13T15:46:30;18.53;;;7.30;;
19095;SDS011;9680;52.520;13.332;2022-12-13T15:49:00;20.83;;;7.83;;
19095;SDS011;9680;52.520;13.332;2022-12-13T15:51:27;22.83;;;9.00;;
19095;SDS011;9680;52.520;13.332;2022-12-13T15:54:04;21.67;;;7.43;;
19095;SDS011;9680;52.520;13.332;2022-12-13T15:59:27;19.30;;;7.20;;
19095;SDS011;9680;52.520;13.332;2022-12-13T16:01:55;17.57;;;6.87;;
19095;SDS011;9680;52.520;13.332;2022-12-13T16:04:21;19.17;;;7.07;;
19095;SDS011;9680;52.520;13.332;2022-12-13T16:06:49;23.07;;;8.00;;
19095;SDS011;9680;52.520;13.332;2022-12-13T16:09:20;22.20;;;7.77;;
19095;SDS011;9680;52.520;13.332;2022-12-13T16:11:58;21.97;;;7.60;;
19095;SDS011;9680;52.520;13.332;2022-12-13T16:16:55;22.67;;;7.97;;
19095;SDS011;9680;52.520;13.332;2022-12-13T16:19:25;23.93;;;8.37;;
19095;SDS011;9680;52.520;13.332;2022-12-13T16:21:51;23.47;;;8.93;;
19095;SDS011;9680;52.520;13.332;2022-12-13T16:24:17;25.07;;;9.30;;
19095;SDS011;9680;52.520;13.332;2022-12-13T16:26:43;23.80;;;8.83;;
19095;SDS011;9680;52.520;13.332;2022-12-13T16:29:11;26.23;;;8.77;;
19095;SDS011;9680;52.520;13.332;2022-12-13T16:31:40;22.47;;;8.20;;
19095;SDS011;9680;52.520;13.332;2022-12-13T16:34:06;24.83;;;8.90;;
19095;SDS011;9680;52.520;13.332;2022-12-13T16:36:32;23.07;;;8.97;;
19095;SDS011;9680;52.520;13.332;2022-12-13T16:38:59;25.33;;;9.23;;
19095;SDS011;9680;52.520;13.332;2022-12-13T16:41:24;25.50;;;9.30;;
19095;SDS011;9680;52.520;13.332;2022-12-13T16:43:51;25.27;;;9.10;;
19095;SDS011;9680;52.520;13.332;2022-12-13T16:46:18;25.27;;;9.43;;
19095;SDS011;9680;52.520;13.332;2022-12-13T16:48:44;24.90;;;9.33;;
19095;SDS011;9680;52.520;13.332;2022-12-13T16:51:09;26.77;;;9.53;;
19095;SDS011;9680;52.520;13.332;2022-12-13T16:53:35;28.20;;;9.50;;
19095;SDS011;9680;52.520;13.332;2022-12-13T16:56:00;25.10;;;9.43;;
19095;SDS011;9680;52.520;13.332;2022-12-13T16:58:26;25.60;;;9.93;;
19095;SDS011;9680;52.520;13.332;2022-12-13T17:00:51;28.73;;;10.30;;
19095;SDS011;9680;52.520;13.332;2022-12-13T17:03:17;28.23;;;10.30;;
19095;SDS011;9680;52.520;13.332;2022-12-13T17:05:42;26.80;;;9.50;;
19095;SDS011;9680;52.520;13.332;2022-12-13T17:08:14;26.00;;;9.67;;
19095;SDS011;9680;52.520;13.332;2022-12-13T17:10:40;27.47;;;10.23;;
19095;SDS011;9680;52.520;13.332;2022-12-13T17:13:07;32.73;;;11.47;;
19095;SDS011;9680;52.520;13.332;2022-12-13T17:15:33;33.90;;;10.83;;
19095;SDS011;9680;52.520;13.332;2022-12-13T17:18:00;28.73;;;10.70;;
19095;SDS011;9680;52.520;13.332;2022-12-13T17:20:26;30.07;;;10.23;;
19095;SDS011;9680;52.520;13.332;2022-12-13T17:22:53;27.77;;;10.07;;
19095;SDS011;9680;52.520;13.332;2022-12-13T17:25:19;26.90;;;10.70;;
19095;SDS011;9680;52.520;13.332;2022-12-13T17:27:45;26.13;;;9.27;;
19095;SDS011;9680;52.520;13.332;2022-12-13T17:30:15;25.77;;;9.70;;
19095;SDS011;9680;52.520;13.332;2022-12-13T17:32:42;26.40;;;9.37;;
19095;SDS011;9680;52.520;13.332;2022-12-13T17:35:08;23.43;;;9.07;;
19095;SDS011;9680;52.520;13.332;2022-12-13T17:37:34;23.27;;;9.40;;
19095;SDS011;9680;52.520;13.332;2022-12-13T17:40:00;26.80;;;9.87;;
19095;SDS011;9680;52.520;13.332;2022-12-13T17:42:26;24.40;;;9.50;;
19095;SDS011;9680;52.520;13.332;2022-12-13T17:44:52;24.67;;;9.97;;
19095;SDS011;9680;52.520;13.332;2022-12-13T17:47:17;23.63;;;9.23;;
19095;SDS011;9680;52.520;13.332;2022-12-13T17:49:42;23.23;;;9.53;;
19095;SDS011;9680;52.520;13.332;2022-12-13T17:52:08;25.27;;;10.03;;
19095;SDS011;9680;52.520;13.332;2022-12-13T17:54:33;24.97;;;9.50;;
19095;SDS011;9680;52.520;13.332;2022-12-13T17:56:59;30.27;;;11.10;;
19095;SDS011;9680;52.520;13.332;2022-12-13T17:59:25;27.67;;;10.60;;
19095;SDS011;9680;52.520;13.332;2022-12-13T18:01:51;25.03;;;9.70;;
19095;SDS011;9680;52.520;13.332;2022-12-13T18:04:17;28.97;;;9.73;;
19095;SDS011;9680;52.520;13.332;2022-12-13T18:06:44;26.73;;;9.97;;
19095;SDS011;9680;52.520;13.332;2022-12-13T18:09:10;23.80;;;9.60;;